Time;durP1;ratioP1;P1;durP2;ratioP2;P2;SDS_P1;SDS_P2;PMS_P1;PMS_P2;Temp;Humidity;BMP_temperature;BMP_pressure;BME280_temperature;BME280_humidity;BME280_pressure;Samples;Min_cycle;Max_cycle;Signal;HPM_P1;HPM_P2
2022/09/03 00:02:02;;;;;;;2.73;2.53;;;;;;;19.09;100.00;99775.53;4961618;28;20219;-78
2022/09/03 00:04:36;;;;;;;2.63;2.43;;;;;;;19.11;100.00;99770.19;4965122;28;20286;-76
2022/09/03 00:07:10;;;;;;;2.77;2.57;;;;;;;19.09;100.00;99772.91;4971828;28;20252;-78
2022/09/03 00:09:46;;;;;;;2.97;2.77;;;;;;;19.06;100.00;99770.44;4962836;28;20191;-76
2022/09/03 00:12:25;;;;;;;2.50;2.30;;;;;;;18.99;100.00;99775.16;4966507;28;20201;-78
2022/09/03 00:14:59;;;;;;;3.23;2.93;;;;;;;18.94;100.00;99773.69;4964400;28;20203;-76
2022/09/03 00:17:31;;;;;;;2.73;2.53;;;;;;;18.92;100.00;99772.91;4963557;28;20696;-75
2022/09/03 00:19:56;;;;;;;3.20;2.90;;;;;;;18.89;100.00;99777.38;4965439;28;20299;-76
2022/09/03 00:22:33;;;;;;;3.00;2.80;;;;;;;18.87;100.00;99776.59;4969056;28;20676;-76
2022/09/03 00:25:02;;;;;;;3.33;2.70;;;;;;;18.85;100.00;99782.84;4965037;28;20198;-78
2022/09/03 00:27:30;;;;;;;3.10;2.80;;;;;;;18.80;100.00;99772.63;4969579;28;20590;-74
2022/09/03 00:30:04;;;;;;;3.10;2.90;;;;;;;18.79;100.00;99785.78;4968303;28;20515;-75
2022/09/03 00:33:09;;;;;;;2.70;2.50;;;;;;;18.76;100.00;99778.06;4969499;28;20288;-76
2022/09/03 00:35:58;;;;;;;2.80;2.60;;;;;;;18.72;100.00;99780.00;4966203;28;20213;-75
2022/09/03 00:38:25;;;;;;;3.30;3.10;;;;;;;18.69;100.00;99788.88;4968045;28;20203;-75
2022/09/03 00:41:20;;;;;;;2.83;2.63;;;;;;;18.65;100.00;99784.72;4962112;28;20281;-76
2022/09/03 00:44:04;;;;;;;3.07;2.87;;;;;;;18.60;100.00;99786.75;4966065;28;20188;-77
2022/09/03 00:46:35;;;;;;;3.00;2.70;;;;;;;18.53;100.00;99791.41;4966059;28;20769;-76
2022/09/03 00:49:32;;;;;;;2.83;2.67;;;;;;;18.46;100.00;99790.03;4962729;28;20286;-75
2022/09/03 00:52:16;;;;;;;3.07;2.87;;;;;;;18.36;100.00;99788.81;4961405;28;20197;-75
2022/09/03 00:54:57;;;;;;;2.80;2.50;;;;;;;18.31;100.00;99777.72;4966120;28;20632;-76
2022/09/03 00:57:29;;;;;;;2.90;2.70;;;;;;;18.26;100.00;99784.00;4964421;28;20262;-76
2022/09/03 01:00:16;;;;;;;3.10;2.90;;;;;;;18.22;100.00;99789.47;4962080;28;20219;-78
2022/09/03 01:03:08;;;;;;;3.40;3.10;;;;;;;18.13;100.00;99781.16;4965324;28;20239;-78
2022/09/03 01:05:36;;;;;;;3.33;3.03;;;;;;;18.07;100.00;99780.63;4965993;28;20215;-75
2022/09/03 01:08:23;;;;;;;3.23;3.00;;;;;;;18.01;100.00;99778.28;4965358;28;20273;-77
2022/09/03 01:11:26;;;;;;;3.13;2.80;;;;;;;17.95;100.00;99787.25;4962744;28;20194;-76
2022/09/03 01:13:51;;;;;;;3.20;2.90;;;;;;;17.90;100.00;99790.09;4964223;28;20193;-77
2022/09/03 01:16:48;;;;;;;3.10;2.90;;;;;;;17.87;100.00;99782.38;4965265;28;20209;-76
2022/09/03 01:19:50;;;;;;;3.27;3.07;;;;;;;17.82;100.00;99790.44;4967921;28;20209;-78
2022/09/03 01:22:34;;;;;;;3.50;3.20;;;;;;;17.79;100.00;99803.69;4964275;28;20441;-76
2022/09/03 01:25:08;;;;;;;3.70;3.23;;;;;;;17.79;100.00;99800.19;4963151;28;20195;-75
2022/09/03 01:27:58;;;;;;;3.40;3.10;;;;;;;17.78;100.00;99799.34;4965692;28;20354;-77
2022/09/03 01:30:24;;;;;;;4.20;3.30;;;;;;;17.75;100.00;99799.50;4964706;28;20607;-76
2022/09/03 01:33:10;;;;;;;3.67;3.17;;;;;;;17.74;100.00;99795.19;4963392;28;20190;-76
2022/09/03 01:36:22;;;;;;;3.10;2.90;;;;;;;17.70;100.00;99792.78;4964077;28;20202;-75
2022/09/03 01:39:03;;;;;;;2.93;2.73;;;;;;;17.68;100.00;99796.31;4952835;28;20222;-76
2022/09/03 01:44:40;;;;;;;3.13;2.93;;;;;;;17.66;100.00;99808.63;4960860;28;20208;-76
2022/09/03 01:47:18;;;;;;;3.30;3.00;;;;;;;17.70;100.00;99808.47;4962251;28;20240;-76
2022/09/03 01:50:16;;;;;;;3.40;3.13;;;;;;;17.72;100.00;99810.09;4966443;28;20190;-75
2022/09/03 01:53:08;;;;;;;3.20;3.00;;;;;;;17.73;100.00;99808.34;4963922;28;20638;-76
2022/09/03 01:56:00;;;;;;;3.70;3.10;;;;;;;17.74;100.00;99815.28;4960743;28;20277;-74
2022/09/03 01:59:02;;;;;;;3.00;2.80;;;;;;;17.79;100.00;99816.75;4964944;28;20222;-76
2022/09/03 02:01:36;;;;;;;2.90;2.70;;;;;;;17.83;100.00;99809.59;4938350;28;20204;-76
2022/09/03 02:04:12;;;;;;;2.97;2.77;;;;;;;17.82;100.00;99803.53;4966627;28;20224;-76
2022/09/03 02:06:39;;;;;;;3.10;2.80;;;;;;;17.76;100.00;99795.13;4963106;28;20761;-76
2022/09/03 02:09:04;;;;;;;3.40;3.10;;;;;;;17.72;100.00;99796.19;4962957;28;20247;-75
2022/09/03 02:11:29;;;;;;;3.73;3.43;;;;;;;17.68;100.00;99795.50;4961130;28;20244;-76
2022/09/03 02:13:58;;;;;;;3.40;3.20;;;;;;;17.67;100.00;99802.47;4962219;28;20198;-76
2022/09/03 02:16:32;;;;;;;3.60;3.30;;;;;;;17.71;100.00;99807.56;4964220;28;20582;-76
2022/09/03 02:19:02;;;;;;;3.33;3.03;;;;;;;17.75;100.00;99803.91;4963441;28;20213;-78
2022/09/03 02:21:35;;;;;;;3.20;3.00;;;;;;;17.75;100.00;99807.34;4963425;28;20539;-76
2022/09/03 02:24:03;;;;;;;3.27;3.07;;;;;;;17.76;100.00;99795.97;4969216;28;20436;-75
2022/09/03 02:26:28;;;;;;;3.07;2.87;;;;;;;17.75;100.00;99788.19;4965817;28;20221;-76
2022/09/03 02:28:54;;;;;;;2.93;2.73;;;;;;;17.76;100.00;99790.72;4964472;28;20190;-76
2022/09/03 02:31:20;;;;;;;3.40;3.20;;;;;;;17.78;100.00;99790.63;4963355;28;20582;-77
2022/09/03 02:33:48;;;;;;;3.03;2.83;;;;;;;17.78;100.00;99794.13;4963326;28;20190;-77
2022/09/03 02:36:17;;;;;;;3.83;3.20;;;;;;;17.79;100.00;99794.97;4976125;28;20344;-76
2022/09/03 02:38:43;;;;;;;3.23;2.93;;;;;;;17.77;100.00;99784.56;4965403;28;20225;-77
2022/09/03 02:41:12;;;;;;;3.10;2.90;;;;;;;17.77;100.00;99778.50;4973580;28;20564;-76
2022/09/03 02:43:52;;;;;;;3.93;3.57;;;;;;;17.78;100.00;99785.41;4964748;28;20685;-75
2022/09/03 02:46:23;;;;;;;3.50;3.20;;;;;;;17.75;100.00;99783.78;4962076;28;20213;-75
2022/09/03 02:48:48;;;;;;;3.50;3.30;;;;;;;17.75;100.00;99789.03;4963852;28;20199;-75
2022/09/03 02:51:13;;;;;;;3.13;2.93;;;;;;;17.76;100.00;99795.13;4963476;28;20190;-75
2022/09/03 02:53:39;;;;;;;3.37;3.00;;;;;;;17.75;100.00;99793.44;4963866;28;20195;-77
2022/09/03 02:56:05;;;;;;;3.40;3.10;;;;;;;17.73;100.00;99796.09;4964250;28;20214;-76
2022/09/03 02:58:30;;;;;;;3.20;3.00;;;;;;;17.72;100.00;99802.25;4962697;28;20215;-77
2022/09/03 03:00:56;;;;;;;2.93;2.73;;;;;;;17.70;100.00;99791.00;4964792;28;20205;-75
2022/09/03 03:03:21;;;;;;;3.00;2.80;;;;;;;17.71;100.00;99791.88;4964987;28;20252;-77
2022/09/03 03:05:49;;;;;;;3.30;3.10;;;;;;;17.68;100.00;99788.47;4964599;28;20253;-76
2022/09/03 03:08:18;;;;;;;3.47;3.17;;;;;;;17.66;100.00;99786.84;4961301;28;20189;-76
2022/09/03 03:10:44;;;;;;;3.93;3.63;;;;;;;17.64;100.00;99789.53;4960428;28;20660;-76
2022/09/03 03:13:10;;;;;;;3.60;3.30;;;;;;;17.64;100.00;99786.91;4965102;28;20198;-76
2022/09/03 03:15:35;;;;;;;3.63;3.33;;;;;;;17.66;100.00;99799.94;4963677;28;20214;-75
2022/09/03 03:18:00;;;;;;;3.80;3.60;;;;;;;17.68;100.00;99805.94;4964341;28;20595;-77
2022/09/03 03:20:26;;;;;;;3.90;3.60;;;;;;;17.70;100.00;99803.25;4966768;28;20203;-77
2022/09/03 03:22:51;;;;;;;3.37;3.17;;;;;;;17.72;100.00;99798.81;4965075;28;20186;-78
2022/09/03 03:25:16;;;;;;;3.63;3.33;;;;;;;17.72;100.00;99797.00;4964057;28;20226;-76
2022/09/03 03:27:42;;;;;;;3.63;3.43;;;;;;;17.73;100.00;99798.72;4963139;28;20285;-76
2022/09/03 03:30:09;;;;;;;3.80;3.50;;;;;;;17.74;100.00;99810.88;4963875;28;20210;-76
2022/09/03 03:32:36;;;;;;;3.53;3.33;;;;;;;17.76;100.00;99810.84;4963079;28;20188;-77
2022/09/03 03:35:02;;;;;;;2.93;2.70;;;;;;;17.77;100.00;99813.38;4958745;28;20192;-77
2022/09/03 03:37:27;;;;;;;3.70;3.40;;;;;;;17.77;100.00;99823.84;4977746;28;20227;-76
2022/09/03 03:39:52;;;;;;;5.03;3.83;;;;;;;17.77;100.00;99826.44;4968464;28;20221;-78
2022/09/03 03:42:18;;;;;;;3.60;3.37;;;;;;;17.78;100.00;99822.06;4965675;28;20209;-76
2022/09/03 03:44:43;;;;;;;3.30;3.00;;;;;;;17.76;100.00;99821.31;4964704;28;20198;-77
2022/09/03 03:47:09;;;;;;;3.70;3.20;;;;;;;17.72;100.00;99824.97;4967668;28;20759;-76
2022/09/03 03:49:34;;;;;;;3.77;3.47;;;;;;;17.68;100.00;99832.94;4972390;28;20252;-75
2022/09/03 03:52:01;;;;;;;3.20;3.00;;;;;;;17.70;100.00;99832.88;4964265;28;20241;-75
2022/09/03 03:54:27;;;;;;;3.73;3.43;;;;;;;17.71;100.00;99829.34;4967888;28;20278;-76
2022/09/03 03:56:52;;;;;;;3.23;2.93;;;;;;;17.72;100.00;99830.19;4967460;28;21993;-76
2022/09/03 03:59:17;;;;;;;3.30;3.00;;;;;;;17.72;100.00;99835.44;4968830;28;20213;-78
2022/09/03 04:01:43;;;;;;;3.40;3.10;;;;;;;17.70;100.00;99840.72;4968088;28;21889;-76
2022/09/03 04:04:08;;;;;;;3.47;3.23;;;;;;;17.68;100.00;99832.94;4965648;28;20190;-77
2022/09/03 04:06:33;;;;;;;3.50;3.30;;;;;;;17.66;100.00;99839.19;4966738;28;20738;-76
2022/09/03 04:08:59;;;;;;;3.63;3.33;;;;;;;17.64;100.00;99835.78;4964935;28;20190;-77
2022/09/03 04:11:25;;;;;;;3.77;3.47;;;;;;;17.62;100.00;99828.00;4967043;28;20245;-77
2022/09/03 04:13:51;;;;;;;3.63;3.43;;;;;;;17.62;100.00;99829.78;4964757;28;20728;-75
2022/09/03 04:16:18;;;;;;;3.50;3.30;;;;;;;17.60;100.00;99829.00;4964200;28;20229;-78
2022/09/03 04:18:44;;;;;;;3.43;3.13;;;;;;;17.59;100.00;99830.78;4967510;28;20253;-76
2022/09/03 04:21:15;;;;;;;5.73;3.70;;;;;;;17.60;100.00;99834.22;4965726;28;20190;-76
2022/09/03 04:23:43;;;;;;;3.53;3.20;;;;;;;17.61;100.00;99841.16;4966765;28;20213;-76
2022/09/03 04:26:11;;;;;;;3.17;2.97;;;;;;;17.61;100.00;99841.16;4969181;28;20226;-77
2022/09/03 04:28:37;;;;;;;3.57;3.37;;;;;;;17.60;100.00;99842.94;4966045;28;20193;-76
2022/09/03 04:31:08;;;;;;;4.00;3.70;;;;;;;17.61;100.00;99844.63;4966755;28;20185;-76
2022/09/03 04:33:36;;;;;;;3.50;3.20;;;;;;;17.59;100.00;99843.84;4978165;28;20558;-75
2022/09/03 04:36:11;;;;;;;3.30;3.10;;;;;;;17.57;100.00;99850.91;4967860;28;20278;-75
2022/09/03 04:38:39;;;;;;;3.87;3.57;;;;;;;17.55;100.00;99849.28;4971354;28;20588;-76
2022/09/03 04:41:06;;;;;;;3.80;3.50;;;;;;;17.53;100.00;99846.72;4970476;28;20560;-75
2022/09/03 04:43:32;;;;;;;3.87;3.67;;;;;;;17.51;100.00;99852.03;4966822;28;21104;-76
2022/09/03 04:45:59;;;;;;;3.50;3.30;;;;;;;17.54;100.00;99855.44;4977996;28;20289;-76
2022/09/03 04:48:28;;;;;;;3.87;3.47;;;;;;;17.56;100.00;99850.97;4962098;28;20725;-76
2022/09/03 04:50:59;;;;;;;3.77;3.57;;;;;;;17.56;100.00;99841.38;4969784;28;20218;-78
2022/09/03 04:53:25;;;;;;;4.07;3.70;;;;;;;17.57;100.00;99848.31;4964003;28;20196;-76
2022/09/03 04:55:50;;;;;;;4.03;3.73;;;;;;;17.58;100.00;99841.28;4968624;28;20216;-76
2022/09/03 04:58:15;;;;;;;4.03;3.70;;;;;;;17.59;100.00;99841.25;4972189;28;20594;-76
2022/09/03 05:00:41;;;;;;;3.03;2.83;;;;;;;17.61;100.00;99844.63;4966303;28;20201;-78
2022/09/03 05:03:06;;;;;;;3.63;3.40;;;;;;;17.67;100.00;99840.88;4966486;28;20190;-77
2022/09/03 05:05:34;;;;;;;3.80;3.50;;;;;;;17.70;100.00;99835.50;4964099;28;20193;-76
2022/09/03 05:08:00;;;;;;;3.53;3.23;;;;;;;17.74;100.00;99837.06;4967460;28;20193;-76
2022/09/03 05:10:26;;;;;;;3.27;3.03;;;;;;;17.76;100.00;99834.38;4965864;28;20245;-77
2022/09/03 05:13:04;;;;;;;3.70;3.40;;;;;;;17.79;100.00;99840.31;4966426;28;20552;-77
2022/09/03 05:15:31;;;;;;;3.40;3.20;;;;;;;17.82;100.00;99847.16;4962722;28;20187;-77
2022/09/03 05:18:02;;;;;;;3.17;2.97;;;;;;;17.86;100.00;99855.72;4964922;28;22208;-77
2022/09/03 05:20:29;;;;;;;3.27;3.07;;;;;;;17.92;100.00;99855.44;4958655;28;20215;-78
2022/09/03 05:22:55;;;;;;;3.47;3.17;;;;;;;17.97;100.00;99863.94;4966927;28;20194;-78
2022/09/03 05:25:21;;;;;;;3.23;3.03;;;;;;;18.01;100.00;99859.44;4959834;28;20558;-78
2022/09/03 05:27:47;;;;;;;3.30;3.10;;;;;;;18.04;100.00;99857.53;4962656;28;20182;-76
2022/09/03 05:30:13;;;;;;;3.60;3.27;;;;;;;18.09;100.00;99867.78;4958895;28;20247;-76
2022/09/03 05:32:39;;;;;;;3.47;3.20;;;;;;;18.13;100.00;99872.81;4956744;28;20223;-76
2022/09/03 05:35:05;;;;;;;4.50;2.87;;;;;;;18.19;100.00;99882.16;4970271;28;20227;-77
2022/09/03 05:37:30;;;;;;;3.57;3.23;;;;;;;18.21;100.00;99876.81;4969519;28;20218;-76
2022/09/03 05:39:55;;;;;;;3.07;2.87;;;;;;;18.25;100.00;99881.00;4975359;28;20274;-76
2022/09/03 05:42:21;;;;;;;3.27;2.90;;;;;;;18.30;100.00;99881.66;4975138;28;20245;-78
2022/09/03 05:44:48;;;;;;;2.87;2.63;;;;;;;18.34;100.00;99879.72;4976422;28;20192;-76
2022/09/03 05:47:13;;;;;;;3.07;2.87;;;;;;;18.36;100.00;99888.38;4969699;28;20199;-76
2022/09/03 05:49:39;;;;;;;3.33;3.03;;;;;;;18.39;100.00;99893.44;4969140;28;20188;-76
2022/09/03 05:52:04;;;;;;;3.40;3.10;;;;;;;18.44;100.00;99896.69;4974100;28;20186;-76
2022/09/03 05:54:29;;;;;;;3.40;3.20;;;;;;;18.47;100.00;99899.16;4970644;28;20206;-76
2022/09/03 05:56:55;;;;;;;3.07;2.87;;;;;;;18.51;100.00;99887.63;4973289;28;20203;-76
2022/09/03 05:59:20;;;;;;;3.00;2.70;;;;;;;18.55;100.00;99888.31;4973471;28;20321;-76
2022/09/03 06:01:45;;;;;;;3.67;3.37;;;;;;;18.59;100.00;99884.63;4974439;28;20257;-75
2022/09/03 06:04:15;;;;;;;2.90;2.70;;;;;;;18.68;100.00;99876.31;4978486;28;20242;-76
2022/09/03 06:06:43;;;;;;;3.00;2.80;;;;;;;18.76;100.00;99881.16;4976234;28;20212;-76
2022/09/03 06:09:12;;;;;;;2.80;2.60;;;;;;;18.82;100.00;99887.88;4974878;28;20730;-76
2022/09/03 06:11:38;;;;;;;3.30;3.00;;;;;;;18.91;100.00;99883.94;4964930;28;20196;-79
2022/09/03 06:14:07;;;;;;;2.93;2.73;;;;;;;19.00;100.00;99883.50;4955016;28;20188;-77
2022/09/03 06:16:38;;;;;;;3.77;3.17;;;;;;;19.02;100.00;99879.03;4965974;28;20213;-76
2022/09/03 06:19:08;;;;;;;3.10;2.80;;;;;;;19.01;100.00;99886.06;4963439;28;20211;-76
2022/09/03 06:21:35;;;;;;;2.50;2.30;;;;;;;18.97;100.00;99887.13;4966373;28;20192;-77
2022/09/03 06:24:01;;;;;;;3.10;2.70;;;;;;;18.92;100.00;99886.47;4965327;28;20279;-76
2022/09/03 06:26:27;;;;;;;3.10;2.90;;;;;;;18.87;100.00;99886.72;4970322;28;20213;-77
2022/09/03 06:28:55;;;;;;;3.40;3.10;;;;;;;18.83;100.00;99903.50;4965170;28;20246;-77
2022/09/03 06:31:21;;;;;;;3.20;2.90;;;;;;;18.86;100.00;99908.63;4965255;28;20670;-78
2022/09/03 06:33:47;;;;;;;3.57;3.27;;;;;;;18.94;100.00;99903.00;4965111;28;20189;-76
2022/09/03 06:36:15;;;;;;;3.37;3.07;;;;;;;19.00;100.00;99901.84;4964143;28;20223;-77
2022/09/03 06:38:42;;;;;;;3.00;2.80;;;;;;;19.08;100.00;99904.09;4962477;28;21092;-76
2022/09/03 06:41:09;;;;;;;3.20;2.90;;;;;;;19.17;100.00;99908.88;4960342;28;20179;-76
2022/09/03 06:43:37;;;;;;;3.00;2.80;;;;;;;19.26;100.00;99899.72;4963076;28;20193;-77
2022/09/03 06:46:14;;;;;;;3.37;3.17;;;;;;;19.36;100.00;99897.47;4960550;28;20310;-78
2022/09/03 06:48:40;;;;;;;3.60;3.03;;;;;;;19.56;100.00;99899.88;4963604;28;20193;-77
2022/09/03 06:51:07;;;;;;;3.70;3.30;;;;;;;19.84;100.00;99894.94;4964529;28;20189;-77
2022/09/03 06:53:44;;;;;;;3.10;2.90;;;;;;;20.15;100.00;99893.28;4964477;28;20696;-77
2022/09/03 06:56:11;;;;;;;3.43;3.13;;;;;;;20.38;100.00;99897.25;4962938;28;20233;-77
2022/09/03 06:58:42;;;;;;;3.23;3.03;;;;;;;20.48;100.00;99897.59;4961756;28;20214;-77
2022/09/03 07:01:19;;;;;;;3.53;3.30;;;;;;;20.46;100.00;99896.81;4962888;28;20645;-77
2022/09/03 07:03:46;;;;;;;3.57;3.37;;;;;;;20.41;100.00;99903.19;4968505;28;20182;-77
2022/09/03 07:06:14;;;;;;;3.47;3.23;;;;;;;20.32;100.00;99902.84;4968848;28;20213;-78
2022/09/03 07:08:41;;;;;;;3.10;2.90;;;;;;;20.25;100.00;99907.59;4963537;28;20209;-78
2022/09/03 07:11:09;;;;;;;3.73;3.43;;;;;;;20.22;100.00;99913.03;4966418;28;20280;-77
2022/09/03 07:13:40;;;;;;;3.67;3.37;;;;;;;20.21;100.00;99906.94;4965302;28;20240;-77
2022/09/03 07:16:13;;;;;;;4.40;4.00;;;;;;;20.29;100.00;99916.16;4965286;28;20598;-77
2022/09/03 07:18:40;;;;;;;3.80;3.50;;;;;;;20.23;100.00;99918.22;4985733;28;20216;-77
2022/09/03 07:21:11;;;;;;;3.63;3.33;;;;;;;20.21;100.00;99919.19;4967522;28;20183;-77
2022/09/03 07:23:38;;;;;;;3.60;3.30;;;;;;;20.13;100.00;99921.41;4966541;28;20231;-77
2022/09/03 07:26:06;;;;;;;3.83;3.53;;;;;;;20.06;100.00;99923.53;4968869;28;20287;-77
2022/09/03 07:28:34;;;;;;;3.83;3.53;;;;;;;20.01;100.00;99931.66;4968433;28;20269;-76
2022/09/03 07:31:04;;;;;;;3.67;3.37;;;;;;;19.96;100.00;99925.81;4973718;28;20189;-78
2022/09/03 07:33:30;;;;;;;4.17;3.73;;;;;;;19.89;100.00;99933.16;4968749;28;20193;-78
2022/09/03 07:35:55;;;;;;;6.97;4.10;;;;;;;19.83;100.00;99941.31;4967424;28;20902;-76
2022/09/03 07:38:22;;;;;;;4.43;4.07;;;;;;;19.79;100.00;99953.78;4965837;28;20220;-77
2022/09/03 07:40:47;;;;;;;5.53;3.97;;;;;;;19.76;100.00;99945.22;4963761;28;20256;-76
2022/09/03 07:43:13;;;;;;;4.30;4.00;;;;;;;19.67;100.00;99951.81;4972789;28;20189;-76
2022/09/03 07:45:38;;;;;;;5.63;5.10;;;;;;;19.60;100.00;99958.28;4974565;28;20224;-77
2022/09/03 07:48:04;;;;;;;5.17;4.70;;;;;;;19.48;100.00;99958.00;4974220;28;20193;-76
2022/09/03 07:50:36;;;;;;;5.47;5.07;;;;;;;19.36;100.00;99966.50;4963583;28;20259;-76
2022/09/03 07:53:02;;;;;;;5.57;5.10;;;;;;;19.24;100.00;99967.13;4970494;28;20219;-78
2022/09/03 07:55:28;;;;;;;5.33;4.90;;;;;;;19.17;100.00;99959.56;4969118;28;20188;-78
2022/09/03 07:57:58;;;;;;;4.90;4.60;;;;;;;19.31;100.00;99958.88;4970958;28;20192;-77
2022/09/03 08:00:24;;;;;;;5.47;5.00;;;;;;;19.49;100.00;99970.19;4969510;28;20332;-76
2022/09/03 08:02:51;;;;;;;5.33;4.83;;;;;;;19.69;100.00;99962.22;4976296;28;20280;-77
2022/09/03 08:05:19;;;;;;;4.90;4.50;;;;;;;19.90;100.00;99950.63;4970442;28;20669;-79
2022/09/03 08:07:44;;;;;;;5.10;4.70;;;;;;;20.30;100.00;99957.25;4967641;28;20658;-77
2022/09/03 08:10:09;;;;;;;5.10;4.67;;;;;;;20.86;100.00;99948.03;4970765;28;20193;-77
2022/09/03 08:12:35;;;;;;;4.50;4.10;;;;;;;21.51;100.00;99948.63;4970777;28;20840;-77
2022/09/03 08:15:01;;;;;;;4.10;3.80;;;;;;;21.85;100.00;99945.75;4971197;28;20729;-76
2022/09/03 08:17:26;;;;;;;3.77;3.43;;;;;;;21.86;100.00;99940.38;4973300;28;20216;-77
2022/09/03 08:19:52;;;;;;;3.60;3.30;;;;;;;21.65;100.00;99939.91;4972105;28;20213;-76
2022/09/03 08:22:17;;;;;;;4.00;3.70;;;;;;;21.41;100.00;99943.06;4966146;28;20253;-77
2022/09/03 08:24:44;;;;;;;3.60;3.40;;;;;;;21.26;100.00;99947.44;4970762;28;20194;-76
2022/09/03 08:27:09;;;;;;;3.90;3.60;;;;;;;21.17;100.00;99948.00;4966248;28;20652;-78
2022/09/03 08:29:35;;;;;;;3.70;3.50;;;;;;;21.07;100.00;99946.88;4968158;28;20190;-77
2022/09/03 08:32:02;;;;;;;4.17;3.87;;;;;;;21.04;100.00;99942.59;4974102;28;20201;-79
2022/09/03 08:34:27;;;;;;;3.80;3.50;;;;;;;21.08;100.00;99935.41;4966011;28;20193;-78
2022/09/03 08:36:53;;;;;;;3.43;3.23;;;;;;;21.23;100.00;99941.53;4966355;28;20213;-76
2022/09/03 08:39:18;;;;;;;3.60;3.30;;;;;;;21.48;100.00;99933.03;4972227;28;20225;-76
2022/09/03 08:41:50;;;;;;;3.93;3.63;;;;;;;21.73;100.00;99931.56;4975124;28;20568;-77
2022/09/03 08:44:36;;;;;;;3.87;3.50;;;;;;;21.81;100.00;99936.34;4969595;28;20204;-78
2022/09/03 08:47:07;;;;;;;3.70;3.40;;;;;;;21.75;100.00;99932.31;4975416;28;20213;-77
2022/09/03 08:49:54;;;;;;;3.30;3.10;;;;;;;21.77;100.00;99935.69;4966936;28;20194;-76
2022/09/03 08:52:22;;;;;;;3.00;2.70;;;;;;;21.90;100.00;99946.34;4980123;28;20328;-77
2022/09/03 08:54:49;;;;;;;3.10;2.90;;;;;;;22.01;100.00;99946.50;4967959;28;20237;-76
2022/09/03 08:57:18;;;;;;;2.90;2.70;;;;;;;22.01;100.00;99948.28;4967577;28;20209;-77
2022/09/03 08:59:43;;;;;;;2.97;2.77;;;;;;;21.97;100.00;99946.78;4970781;28;20253;-76
2022/09/03 09:02:24;;;;;;;3.00;2.80;;;;;;;21.93;100.00;99952.25;4969471;28;20241;-78
2022/09/03 09:04:52;;;;;;;2.50;2.30;;;;;;;21.87;100.00;99944.72;4971530;28;20211;-77
2022/09/03 09:07:37;;;;;;;2.33;2.23;;;;;;;21.85;100.00;99944.00;4973294;28;20296;-76
2022/09/03 09:10:09;;;;;;;2.40;2.30;;;;;;;21.89;100.00;99944.63;4976072;28;20196;-78
2022/09/03 09:12:34;;;;;;;2.80;2.60;;;;;;;21.97;100.00;99941.53;4976155;28;20554;-76
2022/09/03 09:15:09;;;;;;;2.50;2.30;;;;;;;21.98;100.00;99937.94;4969878;28;20519;-77
2022/09/03 09:17:55;;;;;;;2.50;2.40;;;;;;;22.01;100.00;99943.00;4970964;28;20259;-76
2022/09/03 09:20:23;;;;;;;2.43;2.23;;;;;;;22.06;100.00;99926.00;4964353;28;20693;-79
2022/09/03 09:22:55;;;;;;;2.20;2.10;;;;;;;22.16;100.00;99930.66;4962701;28;20203;-76
2022/09/03 09:25:23;;;;;;;2.73;2.53;;;;;;;22.25;100.00;99935.34;4963438;28;20268;-76
2022/09/03 09:28:01;;;;;;;2.80;2.60;;;;;;;22.36;100.00;99932.91;4968295;28;20655;-77
2022/09/03 09:30:31;;;;;;;2.60;2.40;;;;;;;22.47;100.00;99929.56;4972414;28;20197;-77
2022/09/03 09:32:56;;;;;;;2.87;2.67;;;;;;;22.56;100.00;99940.50;4965878;28;20229;-77
2022/09/03 09:35:22;;;;;;;2.73;2.53;;;;;;;22.62;100.00;99927.75;4963262;28;20240;-78
2022/09/03 09:37:49;;;;;;;2.83;2.50;;;;;;;22.69;100.00;99934.28;4958847;28;20202;-77
2022/09/03 09:40:32;;;;;;;2.10;2.00;;;;;;;22.84;100.00;99931.59;4963726;28;20248;-78
2022/09/03 09:43:03;;;;;;;2.60;2.40;;;;;;;22.99;100.00;99940.31;4962513;28;20193;-76
2022/09/03 09:45:28;;;;;;;2.37;2.17;;;;;;;23.18;100.00;99936.44;4964661;28;20200;-80
2022/09/03 09:47:55;;;;;;;2.40;2.30;;;;;;;23.35;100.00;99927.38;4958670;28;20198;-76
2022/09/03 09:50:21;;;;;;;2.50;2.30;;;;;;;23.47;100.00;99929.19;4961406;28;20884;-79
2022/09/03 09:52:47;;;;;;;2.67;2.47;;;;;;;23.60;100.00;99927.38;4959992;28;20281;-78
2022/09/03 09:55:17;;;;;;;2.40;2.20;;;;;;;23.77;100.00;99919.25;4969402;28;20275;-77
2022/09/03 09:57:43;;;;;;;2.53;2.33;;;;;;;23.98;100.00;99928.31;4968499;28;20196;-76
2022/09/03 10:00:11;;;;;;;2.50;2.30;;;;;;;24.25;100.00;99924.66;4970074;28;20217;-76
2022/09/03 10:02:47;;;;;;;2.67;2.47;;;;;;;24.64;100.00;99927.16;4964390;28;20197;-76
2022/09/03 10:05:18;;;;;;;2.90;2.70;;;;;;;25.12;98.20;99920.94;4971368;28;20288;-76
2022/09/03 10:07:58;;;;;;;2.93;2.73;;;;;;;25.53;95.72;99918.75;4964918;28;20599;-76
2022/09/03 10:10:24;;;;;;;2.90;2.70;;;;;;;25.82;94.76;99920.94;4965455;28;20705;-77
2022/09/03 10:13:07;;;;;;;2.80;2.60;;;;;;;26.02;94.43;99924.63;4966023;28;20186;-78
2022/09/03 10:15:45;;;;;;;2.97;2.77;;;;;;;26.03;93.87;99921.03;4962022;28;20201;-76
2022/09/03 10:18:27;;;;;;;2.90;2.70;;;;;;;25.99;93.49;99915.13;4959762;28;20650;-78
2022/09/03 10:21:03;;;;;;;2.77;2.57;;;;;;;25.97;92.71;99914.41;4967987;28;20548;-75
2022/09/03 10:23:39;;;;;;;2.90;2.70;;;;;;;25.83;93.51;99910.19;4969594;28;20194;-76
2022/09/03 10:26:12;;;;;;;3.17;2.97;;;;;;;25.76;93.80;99910.78;4971016;28;20303;-76
2022/09/03 10:28:42;;;;;;;2.53;2.43;;;;;;;25.74;93.87;99910.06;4966747;28;20669;-77
2022/09/03 10:31:26;;;;;;;2.63;2.53;;;;;;;25.71;93.85;99911.16;4966590;28;20198;-79
2022/09/03 10:34:06;;;;;;;2.73;2.53;;;;;;;25.63;93.57;99908.28;4965500;28;20198;-77
2022/09/03 10:37:17;;;;;;;2.90;2.70;;;;;;;25.59;93.68;99914.78;4967353;28;20262;-74
2022/09/03 10:40:07;;;;;;;2.87;2.67;;;;;;;25.49;93.53;99922.59;4935940;28;20808;-76
2022/09/03 10:42:45;;;;;;;2.73;2.53;;;;;;;25.30;93.80;99929.28;4964667;28;20190;-75
2022/09/03 10:45:18;;;;;;;2.30;2.20;;;;;;;25.19;94.01;99932.75;4961891;28;20296;-77
2022/09/03 10:47:49;;;;;;;2.60;2.40;;;;;;;25.18;94.01;99941.69;4959974;28;20259;-75
2022/09/03 10:50:30;;;;;;;2.53;2.40;;;;;;;25.29;93.66;99929.41;4964600;28;20670;-78
2022/09/03 10:53:14;;;;;;;2.60;2.40;;;;;;;25.35;92.88;99931.56;4964100;28;20189;-76
2022/09/03 10:56:01;;;;;;;2.70;2.50;;;;;;;25.33;93.34;99928.22;4966348;28;20713;-75
2022/09/03 10:58:45;;;;;;;2.90;2.60;;;;;;;25.27;93.70;99929.50;4965842;28;20218;-77
2022/09/03 11:01:26;;;;;;;2.73;2.63;;;;;;;25.32;93.74;99921.25;4959225;28;20288;-77
2022/09/03 11:04:40;;;;;;;3.20;3.00;;;;;;;25.47;91.66;99922.72;4963049;28;20570;-76
2022/09/03 11:07:11;;;;;;;2.80;2.60;;;;;;;25.52;91.82;99917.91;4963009;28;20269;-75
2022/09/03 11:09:42;;;;;;;3.10;2.80;;;;;;;25.54;92.11;99921.28;4963242;28;20193;-77
2022/09/03 11:12:21;;;;;;;2.83;2.63;;;;;;;25.54;92.29;99928.41;4955901;28;20198;-76
2022/09/03 11:14:55;;;;;;;3.07;2.83;;;;;;;25.63;92.22;99925.00;4964611;28;21009;-79
2022/09/03 11:17:26;;;;;;;2.60;2.40;;;;;;;25.67;91.93;99917.66;4961899;28;20312;-76
2022/09/03 11:20:04;;;;;;;2.80;2.60;;;;;;;25.80;91.36;99915.72;4962904;28;20210;-77
2022/09/03 11:22:31;;;;;;;2.50;2.30;;;;;;;25.95;90.41;99915.47;4962731;28;20189;-76
2022/09/03 11:25:00;;;;;;;2.60;2.40;;;;;;;26.07;87.90;99922.47;4965502;28;20198;-78
2022/09/03 11:27:34;;;;;;;2.23;2.00;;;;;;;26.03;87.46;99919.19;4961444;28;20206;-78
2022/09/03 11:30:06;;;;;;;2.03;1.93;;;;;;;26.05;87.22;99918.22;4964565;28;20186;-77
2022/09/03 11:32:39;;;;;;;2.40;2.30;;;;;;;26.09;85.56;99909.91;4961227;28;20205;-75
2022/09/03 11:35:16;;;;;;;2.97;2.77;;;;;;;26.01;86.01;99921.16;4962580;28;20252;-75
2022/09/03 11:37:52;;;;;;;2.43;2.23;;;;;;;25.99;87.14;99914.28;4966674;28;20574;-76
2022/09/03 11:40:18;;;;;;;2.40;2.20;;;;;;;26.12;87.28;99911.53;4963186;28;20214;-76
2022/09/03 11:42:45;;;;;;;2.07;1.97;;;;;;;26.35;86.80;99908.78;4964121;28;20288;-76
2022/09/03 11:45:13;;;;;;;2.43;2.23;;;;;;;26.53;86.14;99903.81;4968106;28;20193;-75
2022/09/03 11:47:40;;;;;;;2.63;2.43;;;;;;;26.58;86.08;99898.94;4968897;28;20209;-77
2022/09/03 11:50:15;;;;;;;2.50;2.30;;;;;;;26.53;86.10;99899.34;4962714;28;20197;-77